sensor_id;sensor_type;location;lat;lon;timestamp;P1;durP1;ratioP1;P2;durP2;ratioP2
34926;SDS011;21132;48.308;14.274;2022-07-29T00:00:45;2.83;;;2.58;;
34926;SDS011;21132;48.308;14.274;2022-07-29T00:03:11;5.28;;;3.25;;
34926;SDS011;21132;48.308;14.274;2022-07-29T00:05:38;6.78;;;2.88;;
34926;SDS011;21132;48.308;14.274;2022-07-29T00:08:05;2.75;;;2.47;;
34926;SDS011;21132;48.308;14.274;2022-07-29T00:10:32;4.57;;;3.10;;
34926;SDS011;21132;48.308;14.274;2022-07-29T00:12:58;3.22;;;2.53;;
34926;SDS011;21132;48.308;14.274;2022-07-29T00:15:24;3.00;;;2.70;;
34926;SDS011;21132;48.308;14.274;2022-07-29T00:17:50;7.05;;;2.97;;
34926;SDS011;21132;48.308;14.274;2022-07-29T00:20:16;4.22;;;2.72;;
34926;SDS011;21132;48.308;14.274;2022-07-29T00:22:42;6.32;;;3.13;;
34926;SDS011;21132;48.308;14.274;2022-07-29T00:25:08;8.60;;;3.17;;
34926;SDS011;21132;48.308;14.274;2022-07-29T00:27:35;4.82;;;3.65;;
34926;SDS011;21132;48.308;14.274;2022-07-29T00:30:01;5.03;;;3.10;;
34926;SDS011;21132;48.308;14.274;2022-07-29T00:32:28;3.40;;;2.90;;
34926;SDS011;21132;48.308;14.274;2022-07-29T00:34:54;4.72;;;3.15;;
34926;SDS011;21132;48.308;14.274;2022-07-29T00:37:39;6.95;;;3.22;;
34926;SDS011;21132;48.308;14.274;2022-07-29T00:40:05;3.03;;;2.72;;
34926;SDS011;21132;48.308;14.274;2022-07-29T00:42:31;4.07;;;2.90;;
34926;SDS011;21132;48.308;14.274;2022-07-29T00:45:14;2.78;;;2.55;;
34926;SDS011;21132;48.308;14.274;2022-07-29T00:47:41;3.97;;;3.40;;
34926;SDS011;21132;48.308;14.274;2022-07-29T00:50:08;7.47;;;3.38;;
34926;SDS011;21132;48.308;14.274;2022-07-29T00:52:35;6.03;;;3.65;;
34926;SDS011;21132;48.308;14.274;2022-07-29T00:55:03;4.20;;;3.40;;
34926;SDS011;21132;48.308;14.274;2022-07-29T00:57:31;6.25;;;3.60;;
34926;SDS011;21132;48.308;14.274;2022-07-29T00:59:57;4.20;;;3.38;;
34926;SDS011;21132;48.308;14.274;2022-07-29T01:02:23;4.95;;;3.40;;
34926;SDS011;21132;48.308;14.274;2022-07-29T01:04:49;6.53;;;3.33;;
34926;SDS011;21132;48.308;14.274;2022-07-29T01:07:16;3.80;;;3.40;;
34926;SDS011;21132;48.308;14.274;2022-07-29T01:09:43;3.67;;;3.17;;
34926;SDS011;21132;48.308;14.274;2022-07-29T01:12:10;4.70;;;3.50;;
34926;SDS011;21132;48.308;14.274;2022-07-29T01:14:38;6.40;;;3.83;;
34926;SDS011;21132;48.308;14.274;2022-07-29T01:17:48;4.38;;;3.42;;
34926;SDS011;21132;48.308;14.274;2022-07-29T01:23:28;3.95;;;3.40;;
34926;SDS011;21132;48.308;14.274;2022-07-29T01:31:12;6.45;;;3.78;;
34926;SDS011;21132;48.308;14.274;2022-07-29T01:33:45;3.95;;;3.40;;
34926;SDS011;21132;48.308;14.274;2022-07-29T01:36:22;6.07;;;3.20;;
34926;SDS011;21132;48.308;14.274;2022-07-29T01:38:59;4.78;;;3.25;;
34926;SDS011;21132;48.308;14.274;2022-07-29T01:41:34;7.63;;;3.70;;
34926;SDS011;21132;48.308;14.274;2022-07-29T01:44:10;4.20;;;3.42;;
34926;SDS011;21132;48.308;14.274;2022-07-29T01:46:41;5.28;;;3.47;;
34926;SDS011;21132;48.308;14.274;2022-07-29T01:49:15;3.80;;;3.38;;
34926;SDS011;21132;48.308;14.274;2022-07-29T01:51:46;4.63;;;3.60;;
34926;SDS011;21132;48.308;14.274;2022-07-29T01:54:48;4.32;;;3.75;;
34926;SDS011;21132;48.308;14.274;2022-07-29T01:57:27;4.20;;;3.60;;
34926;SDS011;21132;48.308;14.274;2022-07-29T01:59:56;5.00;;;3.00;;
34926;SDS011;21132;48.308;14.274;2022-07-29T02:02:23;4.40;;;3.13;;
34926;SDS011;21132;48.308;14.274;2022-07-29T02:04:51;3.67;;;3.13;;
34926;SDS011;21132;48.308;14.274;2022-07-29T02:07:20;5.82;;;3.28;;
34926;SDS011;21132;48.308;14.274;2022-07-29T02:09:49;5.68;;;3.65;;
34926;SDS011;21132;48.308;14.274;2022-07-29T02:12:17;6.78;;;3.15;;
34926;SDS011;21132;48.308;14.274;2022-07-29T02:14:45;4.93;;;3.40;;
34926;SDS011;21132;48.308;14.274;2022-07-29T02:17:15;6.38;;;3.22;;
34926;SDS011;21132;48.308;14.274;2022-07-29T02:19:46;6.82;;;3.47;;
34926;SDS011;21132;48.308;14.274;2022-07-29T02:22:13;3.80;;;2.88;;
34926;SDS011;21132;48.308;14.274;2022-07-29T02:24:41;5.10;;;3.47;;
34926;SDS011;21132;48.308;14.274;2022-07-29T02:27:07;5.68;;;3.63;;
34926;SDS011;21132;48.308;14.274;2022-07-29T02:29:34;4.65;;;3.08;;
34926;SDS011;21132;48.308;14.274;2022-07-29T02:32:02;4.07;;;3.03;;
34926;SDS011;21132;48.308;14.274;2022-07-29T02:34:29;3.85;;;3.33;;
34926;SDS011;21132;48.308;14.274;2022-07-29T02:36:56;17.15;;;5.10;;
34926;SDS011;21132;48.308;14.274;2022-07-29T02:39:22;4.90;;;3.15;;
34926;SDS011;21132;48.308;14.274;2022-07-29T02:41:55;7.78;;;2.97;;
34926;SDS011;21132;48.308;14.274;2022-07-29T02:44:26;3.42;;;2.97;;
34926;SDS011;21132;48.308;14.274;2022-07-29T02:47:03;6.32;;;3.05;;
34926;SDS011;21132;48.308;14.274;2022-07-29T02:49:42;6.78;;;3.35;;
34926;SDS011;21132;48.308;14.274;2022-07-29T02:57:21;4.35;;;3.05;;
34926;SDS011;21132;48.308;14.274;2022-07-29T02:59:59;4.78;;;3.03;;
34926;SDS011;21132;48.308;14.274;2022-07-29T03:02:31;10.95;;;3.38;;
34926;SDS011;21132;48.308;14.274;2022-07-29T03:05:01;4.70;;;3.03;;
34926;SDS011;21132;48.308;14.274;2022-07-29T03:07:29;4.70;;;3.25;;
34926;SDS011;21132;48.308;14.274;2022-07-29T03:09:55;3.35;;;2.85;;
34926;SDS011;21132;48.308;14.274;2022-07-29T03:12:22;4.80;;;3.47;;
34926;SDS011;21132;48.308;14.274;2022-07-29T03:14:49;3.90;;;3.53;;
34926;SDS011;21132;48.308;14.274;2022-07-29T03:17:16;9.55;;;3.17;;
34926;SDS011;21132;48.308;14.274;2022-07-29T03:19:42;4.28;;;2.72;;
34926;SDS011;21132;48.308;14.274;2022-07-29T03:22:08;3.22;;;2.80;;
34926;SDS011;21132;48.308;14.274;2022-07-29T03:24:36;4.63;;;3.10;;
34926;SDS011;21132;48.308;14.274;2022-07-29T03:27:02;7.15;;;3.67;;
34926;SDS011;21132;48.308;14.274;2022-07-29T03:29:29;4.97;;;3.30;;
34926;SDS011;21132;48.308;14.274;2022-07-29T03:31:55;5.70;;;3.13;;
34926;SDS011;21132;48.308;14.274;2022-07-29T03:34:21;5.50;;;3.25;;
34926;SDS011;21132;48.308;14.274;2022-07-29T03:36:47;4.55;;;3.42;;
34926;SDS011;21132;48.308;14.274;2022-07-29T03:39:15;3.33;;;2.95;;
34926;SDS011;21132;48.308;14.274;2022-07-29T03:41:45;4.05;;;3.47;;
34926;SDS011;21132;48.308;14.274;2022-07-29T03:44:12;3.50;;;2.85;;
34926;SDS011;21132;48.308;14.274;2022-07-29T03:46:43;9.82;;;3.38;;
34926;SDS011;21132;48.308;14.274;2022-07-29T03:49:11;5.32;;;3.53;;
34926;SDS011;21132;48.308;14.274;2022-07-29T03:51:39;3.95;;;3.30;;
34926;SDS011;21132;48.308;14.274;2022-07-29T03:54:05;6.55;;;3.03;;
34926;SDS011;21132;48.308;14.274;2022-07-29T03:56:32;5.88;;;3.45;;
34926;SDS011;21132;48.308;14.274;2022-07-29T03:58:59;5.00;;;3.05;;
34926;SDS011;21132;48.308;14.274;2022-07-29T04:01:28;6.15;;;2.95;;
34926;SDS011;21132;48.308;14.274;2022-07-29T04:03:55;7.05;;;2.85;;
34926;SDS011;21132;48.308;14.274;2022-07-29T04:06:21;4.20;;;3.13;;
34926;SDS011;21132;48.308;14.274;2022-07-29T04:08:47;6.93;;;3.38;;
34926;SDS011;21132;48.308;14.274;2022-07-29T04:11:13;4.63;;;3.08;;
34926;SDS011;21132;48.308;14.274;2022-07-29T04:13:39;5.43;;;3.05;;
34926;SDS011;21132;48.308;14.274;2022-07-29T04:16:05;4.28;;;3.70;;
34926;SDS011;21132;48.308;14.274;2022-07-29T04:18:31;6.65;;;3.38;;
34926;SDS011;21132;48.308;14.274;2022-07-29T04:20:56;5.07;;;3.58;;
34926;SDS011;21132;48.308;14.274;2022-07-29T04:23:25;5.15;;;3.35;;
34926;SDS011;21132;48.308;14.274;2022-07-29T04:25:52;7.85;;;3.17;;
34926;SDS011;21132;48.308;14.274;2022-07-29T04:28:17;6.68;;;3.38;;
34926;SDS011;21132;48.308;14.274;2022-07-29T04:30:43;10.45;;;3.35;;
34926;SDS011;21132;48.308;14.274;2022-07-29T04:33:09;4.00;;;2.83;;
34926;SDS011;21132;48.308;14.274;2022-07-29T04:35:38;8.43;;;3.10;;
34926;SDS011;21132;48.308;14.274;2022-07-29T04:38:04;4.53;;;2.88;;
34926;SDS011;21132;48.308;14.274;2022-07-29T04:40:31;6.07;;;3.22;;
34926;SDS011;21132;48.308;14.274;2022-07-29T04:42:58;3.15;;;2.78;;
34926;SDS011;21132;48.308;14.274;2022-07-29T04:45:25;5.00;;;3.33;;
34926;SDS011;21132;48.308;14.274;2022-07-29T04:47:51;3.17;;;2.88;;
34926;SDS011;21132;48.308;14.274;2022-07-29T04:50:17;5.90;;;2.95;;
34926;SDS011;21132;48.308;14.274;2022-07-29T04:52:43;3.65;;;2.97;;
34926;SDS011;21132;48.308;14.274;2022-07-29T04:55:08;9.88;;;3.38;;
34926;SDS011;21132;48.308;14.274;2022-07-29T04:57:34;4.53;;;3.17;;
34926;SDS011;21132;48.308;14.274;2022-07-29T05:00:00;3.13;;;2.80;;
34926;SDS011;21132;48.308;14.274;2022-07-29T05:02:26;3.42;;;2.92;;
34926;SDS011;21132;48.308;14.274;2022-07-29T05:04:52;6.35;;;3.33;;
34926;SDS011;21132;48.308;14.274;2022-07-29T05:07:18;5.03;;;3.50;;
34926;SDS011;21132;48.308;14.274;2022-07-29T05:09:44;5.10;;;3.40;;
34926;SDS011;21132;48.308;14.274;2022-07-29T05:12:09;6.38;;;3.80;;
34926;SDS011;21132;48.308;14.274;2022-07-29T05:14:35;4.40;;;3.33;;
34926;SDS011;21132;48.308;14.274;2022-07-29T05:17:01;5.63;;;3.13;;
34926;SDS011;21132;48.308;14.274;2022-07-29T05:19:27;6.50;;;3.33;;
34926;SDS011;21132;48.308;14.274;2022-07-29T05:21:53;4.05;;;3.30;;
34926;SDS011;21132;48.308;14.274;2022-07-29T05:24:18;4.95;;;3.15;;
34926;SDS011;21132;48.308;14.274;2022-07-29T05:26:44;3.20;;;2.88;;
34926;SDS011;21132;48.308;14.274;2022-07-29T05:29:10;3.33;;;2.80;;
34926;SDS011;21132;48.308;14.274;2022-07-29T05:31:36;4.25;;;2.85;;
34926;SDS011;21132;48.308;14.274;2022-07-29T05:34:02;6.25;;;3.50;;
34926;SDS011;21132;48.308;14.274;2022-07-29T05:36:27;10.13;;;3.08;;
34926;SDS011;21132;48.308;14.274;2022-07-29T05:38:53;6.88;;;3.65;;
34926;SDS011;21132;48.308;14.274;2022-07-29T05:41:19;6.50;;;3.38;;
34926;SDS011;21132;48.308;14.274;2022-07-29T05:43:45;6.93;;;3.05;;
34926;SDS011;21132;48.308;14.274;2022-07-29T05:46:11;8.07;;;3.58;;
34926;SDS011;21132;48.308;14.274;2022-07-29T05:48:37;3.40;;;2.83;;
34926;SDS011;21132;48.308;14.274;2022-07-29T05:51:03;4.30;;;3.08;;
34926;SDS011;21132;48.308;14.274;2022-07-29T05:53:30;7.72;;;3.10;;
34926;SDS011;21132;48.308;14.274;2022-07-29T05:55:55;6.22;;;4.10;;
34926;SDS011;21132;48.308;14.274;2022-07-29T05:58:21;4.45;;;3.03;;
34926;SDS011;21132;48.308;14.274;2022-07-29T06:00:47;4.70;;;3.00;;
34926;SDS011;21132;48.308;14.274;2022-07-29T06:03:14;3.88;;;2.78;;
34926;SDS011;21132;48.308;14.274;2022-07-29T06:05:40;4.28;;;2.85;;
34926;SDS011;21132;48.308;14.274;2022-07-29T06:08:06;5.13;;;3.25;;
34926;SDS011;21132;48.308;14.274;2022-07-29T06:10:32;4.00;;;3.15;;
34926;SDS011;21132;48.308;14.274;2022-07-29T06:13:00;6.38;;;3.00;;
34926;SDS011;21132;48.308;14.274;2022-07-29T06:15:26;4.32;;;2.90;;
34926;SDS011;21132;48.308;14.274;2022-07-29T06:17:52;4.78;;;3.17;;
34926;SDS011;21132;48.308;14.274;2022-07-29T06:20:18;4.38;;;2.80;;
34926;SDS011;21132;48.308;14.274;2022-07-29T06:22:44;5.07;;;2.92;;
34926;SDS011;21132;48.308;14.274;2022-07-29T06:25:10;11.63;;;2.95;;
34926;SDS011;21132;48.308;14.274;2022-07-29T06:27:36;3.28;;;2.72;;
34926;SDS011;21132;48.308;14.274;2022-07-29T06:30:02;8.48;;;3.53;;
34926;SDS011;21132;48.308;14.274;2022-07-29T06:32:31;4.68;;;2.83;;
34926;SDS011;21132;48.308;14.274;2022-07-29T06:34:57;6.68;;;2.88;;
34926;SDS011;21132;48.308;14.274;2022-07-29T06:37:23;7.65;;;3.08;;
34926;SDS011;21132;48.308;14.274;2022-07-29T06:39:49;6.18;;;3.15;;
34926;SDS011;21132;48.308;14.274;2022-07-29T06:42:35;20.25;;;4.72;;
34926;SDS011;21132;48.308;14.274;2022-07-29T06:45:00;3.67;;;2.72;;
34926;SDS011;21132;48.308;14.274;2022-07-29T06:47:26;3.90;;;3.00;;
34926;SDS011;21132;48.308;14.274;2022-07-29T06:49:52;5.50;;;3.15;;
34926;SDS011;21132;48.308;14.274;2022-07-29T06:52:19;3.60;;;2.65;;
34926;SDS011;21132;48.308;14.274;2022-07-29T06:54:45;5.45;;;2.90;;
34926;SDS011;21132;48.308;14.274;2022-07-29T06:57:13;8.55;;;3.20;;
34926;SDS011;21132;48.308;14.274;2022-07-29T06:59:39;2.45;;;2.25;;
34926;SDS011;21132;48.308;14.274;2022-07-29T07:02:05;4.25;;;2.88;;
34926;SDS011;21132;48.308;14.274;2022-07-29T07:04:30;4.40;;;2.90;;
34926;SDS011;21132;48.308;14.274;2022-07-29T07:06:57;6.25;;;3.20;;
34926;SDS011;21132;48.308;14.274;2022-07-29T07:09:24;8.25;;;3.33;;
34926;SDS011;21132;48.308;14.274;2022-07-29T07:11:49;5.47;;;2.92;;
34926;SDS011;21132;48.308;14.274;2022-07-29T07:14:15;6.25;;;3.00;;
34926;SDS011;21132;48.308;14.274;2022-07-29T07:16:41;6.05;;;3.13;;
34926;SDS011;21132;48.308;14.274;2022-07-29T07:19:07;5.63;;;3.20;;
34926;SDS011;21132;48.308;14.274;2022-07-29T07:21:32;3.67;;;2.58;;
34926;SDS011;21132;48.308;14.274;2022-07-29T07:23:58;4.55;;;2.63;;
34926;SDS011;21132;48.308;14.274;2022-07-29T07:26:25;4.18;;;2.63;;
34926;SDS011;21132;48.308;14.274;2022-07-29T07:28:52;9.15;;;3.00;;
34926;SDS011;21132;48.308;14.274;2022-07-29T07:31:18;8.70;;;3.30;;
34926;SDS011;21132;48.308;14.274;2022-07-29T07:33:43;3.45;;;2.80;;
34926;SDS011;21132;48.308;14.274;2022-07-29T07:36:09;8.27;;;2.70;;
34926;SDS011;21132;48.308;14.274;2022-07-29T07:38:35;5.63;;;3.10;;
34926;SDS011;21132;48.308;14.274;2022-07-29T07:41:01;4.93;;;2.75;;
34926;SDS011;21132;48.308;14.274;2022-07-29T07:43:27;7.97;;;3.03;;
34926;SDS011;21132;48.308;14.274;2022-07-29T07:45:53;4.13;;;2.92;;
34926;SDS011;21132;48.308;14.274;2022-07-29T07:48:19;4.25;;;2.90;;
34926;SDS011;21132;48.308;14.274;2022-07-29T07:50:44;5.47;;;2.90;;
34926;SDS011;21132;48.308;14.274;2022-07-29T07:53:11;7.05;;;2.75;;
34926;SDS011;21132;48.308;14.274;2022-07-29T07:55:40;3.92;;;2.72;;
34926;SDS011;21132;48.308;14.274;2022-07-29T07:58:07;2.97;;;2.55;;
34926;SDS011;21132;48.308;14.274;2022-07-29T08:00:34;4.30;;;2.88;;
34926;SDS011;21132;48.308;14.274;2022-07-29T08:02:59;8.68;;;3.08;;
34926;SDS011;21132;48.308;14.274;2022-07-29T08:05:25;9.38;;;4.07;;
34926;SDS011;21132;48.308;14.274;2022-07-29T08:07:51;6.20;;;2.70;;
34926;SDS011;21132;48.308;14.274;2022-07-29T08:10:17;9.00;;;3.03;;
34926;SDS011;21132;48.308;14.274;2022-07-29T08:13:04;7.43;;;3.70;;
34926;SDS011;21132;48.308;14.274;2022-07-29T08:15:34;5.40;;;3.08;;
34926;SDS011;21132;48.308;14.274;2022-07-29T08:18:00;6.20;;;3.47;;
34926;SDS011;21132;48.308;14.274;2022-07-29T08:20:26;7.13;;;3.20;;
34926;SDS011;21132;48.308;14.274;2022-07-29T08:22:52;8.88;;;3.10;;
34926;SDS011;21132;48.308;14.274;2022-07-29T08:25:18;5.75;;;3.42;;
34926;SDS011;21132;48.308;14.274;2022-07-29T08:27:48;8.05;;;3.17;;
34926;SDS011;21132;48.308;14.274;2022-07-29T08:30:14;4.15;;;2.80;;
34926;SDS011;21132;48.308;14.274;2022-07-29T08:32:40;4.78;;;2.90;;
34926;SDS011;21132;48.308;14.274;2022-07-29T08:35:07;3.67;;;2.80;;
34926;SDS011;21132;48.308;14.274;2022-07-29T08:37:33;3.60;;;2.75;;
34926;SDS011;21132;48.308;14.274;2022-07-29T08:39:59;6.15;;;2.85;;
34926;SDS011;21132;48.308;14.274;2022-07-29T08:42:25;6.55;;;3.40;;
34926;SDS011;21132;48.308;14.274;2022-07-29T08:44:51;4.53;;;2.88;;
34926;SDS011;21132;48.308;14.274;2022-07-29T08:47:18;3.90;;;2.75;;
34926;SDS011;21132;48.308;14.274;2022-07-29T08:49:44;3.92;;;2.40;;
34926;SDS011;21132;48.308;14.274;2022-07-29T08:52:12;4.03;;;2.90;;
34926;SDS011;21132;48.308;14.274;2022-07-29T08:54:39;4.32;;;3.13;;
34926;SDS011;21132;48.308;14.274;2022-07-29T08:57:08;3.65;;;2.67;;
34926;SDS011;21132;48.308;14.274;2022-07-29T08:59:35;4.38;;;2.70;;
34926;SDS011;21132;48.308;14.274;2022-07-29T09:02:05;5.03;;;3.22;;
34926;SDS011;21132;48.308;14.274;2022-07-29T09:04:37;5.82;;;3.40;;
34926;SDS011;21132;48.308;14.274;2022-07-29T09:07:04;5.20;;;3.28;;
34926;SDS011;21132;48.308;14.274;2022-07-29T09:09:30;6.50;;;3.40;;
34926;SDS011;21132;48.308;14.274;2022-07-29T09:11:58;5.25;;;3.55;;
34926;SDS011;21132;48.308;14.274;2022-07-29T09:14:25;4.40;;;3.05;;
34926;SDS011;21132;48.308;14.274;2022-07-29T09:16:54;8.77;;;3.17;;
34926;SDS011;21132;48.308;14.274;2022-07-29T09:19:23;5.35;;;3.42;;
34926;SDS011;21132;48.308;14.274;2022-07-29T09:21:50;5.72;;;3.63;;
34926;SDS011;21132;48.308;14.274;2022-07-29T09:24:44;6.40;;;3.13;;
34926;SDS011;21132;48.308;14.274;2022-07-29T09:27:19;6.50;;;3.30;;
34926;SDS011;21132;48.308;14.274;2022-07-29T09:29:54;4.68;;;3.20;;
34926;SDS011;21132;48.308;14.274;2022-07-29T09:32:24;5.53;;;3.25;;
34926;SDS011;21132;48.308;14.274;2022-07-29T09:35:02;7.47;;;3.33;;
34926;SDS011;21132;48.308;14.274;2022-07-29T09:37:44;3.65;;;2.83;;
34926;SDS011;21132;48.308;14.274;2022-07-29T09:40:11;5.53;;;3.15;;
34926;SDS011;21132;48.308;14.274;2022-07-29T09:42:38;10.68;;;3.67;;
34926;SDS011;21132;48.308;14.274;2022-07-29T09:45:04;5.75;;;3.38;;
34926;SDS011;21132;48.308;14.274;2022-07-29T09:47:47;5.30;;;3.63;;
34926;SDS011;21132;48.308;14.274;2022-07-29T09:50:14;7.07;;;3.55;;
34926;SDS011;21132;48.308;14.274;2022-07-29T09:52:48;10.13;;;4.25;;
34926;SDS011;21132;48.308;14.274;2022-07-29T09:55:16;5.47;;;3.35;;
34926;SDS011;21132;48.308;14.274;2022-07-29T09:57:42;7.40;;;3.58;;
34926;SDS011;21132;48.308;14.274;2022-07-29T10:00:10;5.35;;;3.10;;
34926;SDS011;21132;48.308;14.274;2022-07-29T10:02:40;7.95;;;3.95;;
34926;SDS011;21132;48.308;14.274;2022-07-29T10:05:22;6.97;;;4.25;;
34926;SDS011;21132;48.308;14.274;2022-07-29T10:07:53;10.40;;;4.70;;
34926;SDS011;21132;48.308;14.274;2022-07-29T10:10:24;10.18;;;4.10;;
34926;SDS011;21132;48.308;14.274;2022-07-29T10:12:55;5.68;;;3.75;;
34926;SDS011;21132;48.308;14.274;2022-07-29T10:15:23;5.80;;;3.78;;
34926;SDS011;21132;48.308;14.274;2022-07-29T10:17:51;9.68;;;3.63;;
34926;SDS011;21132;48.308;14.274;2022-07-29T10:20:19;5.28;;;4.05;;
34926;SDS011;21132;48.308;14.274;2022-07-29T10:22:49;8.98;;;4.40;;
34926;SDS011;21132;48.308;14.274;2022-07-29T10:25:17;12.25;;;4.15;;
34926;SDS011;21132;48.308;14.274;2022-07-29T10:27:44;10.52;;;3.17;;
34926;SDS011;21132;48.308;14.274;2022-07-29T10:30:11;6.85;;;4.15;;
34926;SDS011;21132;48.308;14.274;2022-07-29T10:38:52;11.48;;;4.53;;
34926;SDS011;21132;48.308;14.274;2022-07-29T10:44:20;8.20;;;4.07;;
34926;SDS011;21132;48.308;14.274;2022-07-29T10:46:47;6.78;;;3.83;;
34926;SDS011;21132;48.308;14.274;2022-07-29T10:57:21;5.03;;;3.20;;
34926;SDS011;21132;48.308;14.274;2022-07-29T11:05:15;10.98;;;3.42;;
34926;SDS011;21132;48.308;14.274;2022-07-29T11:10:38;6.57;;;3.70;;
34926;SDS011;21132;48.308;14.274;2022-07-29T11:13:04;5.05;;;3.35;;
34926;SDS011;21132;48.308;14.274;2022-07-29T11:15:51;5.30;;;3.78;;
34926;SDS011;21132;48.308;14.274;2022-07-29T11:18:20;6.47;;;3.58;;
34926;SDS011;21132;48.308;14.274;2022-07-29T11:20:46;5.38;;;3.90;;
34926;SDS011;21132;48.308;14.274;2022-07-29T11:23:28;8.95;;;4.05;;
34926;SDS011;21132;48.308;14.274;2022-07-29T11:28:50;7.18;;;4.13;;
34926;SDS011;21132;48.308;14.274;2022-07-29T11:31:31;6.10;;;3.08;;
34926;SDS011;21132;48.308;14.274;2022-07-29T11:34:20;7.47;;;3.58;;
34926;SDS011;21132;48.308;14.274;2022-07-29T11:39:35;6.47;;;3.40;;
34926;SDS011;21132;48.308;14.274;2022-07-29T11:44:55;4.38;;;3.10;;
34926;SDS011;21132;48.308;14.274;2022-07-29T11:47:51;7.10;;;3.72;;
34926;SDS011;21132;48.308;14.274;2022-07-29T11:50:32;5.97;;;3.42;;
34926;SDS011;21132;48.308;14.274;2022-07-29T11:53:02;3.80;;;3.03;;
34926;SDS011;21132;48.308;14.274;2022-07-29T11:55:36;3.85;;;2.60;;
34926;SDS011;21132;48.308;14.274;2022-07-29T11:58:04;5.88;;;3.22;;
34926;SDS011;21132;48.308;14.274;2022-07-29T12:00:31;4.63;;;3.20;;
34926;SDS011;21132;48.308;14.274;2022-07-29T12:03:02;6.97;;;2.92;;
34926;SDS011;21132;48.308;14.274;2022-07-29T12:08:07;4.35;;;2.92;;
34926;SDS011;21132;48.308;14.274;2022-07-29T12:10:37;6.40;;;3.22;;
34926;SDS011;21132;48.308;14.274;2022-07-29T12:13:04;5.03;;;3.15;;
34926;SDS011;21132;48.308;14.274;2022-07-29T12:15:30;4.35;;;2.63;;
34926;SDS011;21132;48.308;14.274;2022-07-29T12:17:56;3.40;;;2.50;;
34926;SDS011;21132;48.308;14.274;2022-07-29T12:20:23;2.80;;;2.30;;
34926;SDS011;21132;48.308;14.274;2022-07-29T12:22:53;6.57;;;2.75;;
34926;SDS011;21132;48.308;14.274;2022-07-29T12:25:20;6.35;;;3.13;;
34926;SDS011;21132;48.308;14.274;2022-07-29T12:27:57;6.35;;;3.35;;
34926;SDS011;21132;48.308;14.274;2022-07-29T12:30:36;3.97;;;2.85;;
34926;SDS011;21132;48.308;14.274;2022-07-29T12:33:20;5.68;;;2.60;;
34926;SDS011;21132;48.308;14.274;2022-07-29T12:35:57;3.40;;;2.50;;
34926;SDS011;21132;48.308;14.274;2022-07-29T12:38:26;4.90;;;2.70;;
34926;SDS011;21132;48.308;14.274;2022-07-29T12:40:52;2.72;;;2.20;;
34926;SDS011;21132;48.308;14.274;2022-07-29T12:43:19;4.80;;;2.35;;
34926;SDS011;21132;48.308;14.274;2022-07-29T12:45:47;3.97;;;2.10;;
34926;SDS011;21132;48.308;14.274;2022-07-29T12:48:31;2.60;;;1.88;;
34926;SDS011;21132;48.308;14.274;2022-07-29T12:51:05;1.98;;;1.67;;
34926;SDS011;21132;48.308;14.274;2022-07-29T12:53:32;3.70;;;2.05;;
34926;SDS011;21132;48.308;14.274;2022-07-29T12:55:59;2.95;;;1.77;;
34926;SDS011;21132;48.308;14.274;2022-07-29T12:58:32;3.25;;;1.90;;
34926;SDS011;21132;48.308;14.274;2022-07-29T13:00:59;5.43;;;2.38;;
34926;SDS011;21132;48.308;14.274;2022-07-29T13:03:25;4.38;;;1.63;;
34926;SDS011;21132;48.308;14.274;2022-07-29T13:05:51;1.52;;;1.40;;
34926;SDS011;21132;48.308;14.274;2022-07-29T13:08:17;2.10;;;1.65;;
34926;SDS011;21132;48.308;14.274;2022-07-29T13:10:46;1.95;;;1.50;;
34926;SDS011;21132;48.308;14.274;2022-07-29T13:13:12;2.30;;;1.67;;
34926;SDS011;21132;48.308;14.274;2022-07-29T13:15:41;6.43;;;1.90;;
34926;SDS011;21132;48.308;14.274;2022-07-29T13:20:54;6.78;;;2.50;;
34926;SDS011;21132;48.308;14.274;2022-07-29T13:23:20;4.13;;;2.38;;
34926;SDS011;21132;48.308;14.274;2022-07-29T13:25:46;25.38;;;3.42;;
34926;SDS011;21132;48.308;14.274;2022-07-29T13:28:12;5.20;;;2.03;;
34926;SDS011;21132;48.308;14.274;2022-07-29T13:30:39;5.30;;;2.08;;
34926;SDS011;21132;48.308;14.274;2022-07-29T13:33:05;4.05;;;1.83;;
34926;SDS011;21132;48.308;14.274;2022-07-29T13:35:31;2.97;;;1.90;;
34926;SDS011;21132;48.308;14.274;2022-07-29T13:37:57;3.40;;;1.70;;
34926;SDS011;21132;48.308;14.274;2022-07-29T13:40:23;1.70;;;1.60;;
34926;SDS011;21132;48.308;14.274;2022-07-29T13:42:49;2.50;;;1.35;;
34926;SDS011;21132;48.308;14.274;2022-07-29T13:45:15;2.58;;;1.67;;
34926;SDS011;21132;48.308;14.274;2022-07-29T13:47:41;2.28;;;1.60;;
34926;SDS011;21132;48.308;14.274;2022-07-29T13:50:07;2.50;;;1.45;;
34926;SDS011;21132;48.308;14.274;2022-07-29T13:52:35;4.82;;;1.83;;
34926;SDS011;21132;48.308;14.274;2022-07-29T13:55:02;1.95;;;1.65;;
34926;SDS011;21132;48.308;14.274;2022-07-29T13:57:29;2.22;;;1.40;;
34926;SDS011;21132;48.308;14.274;2022-07-29T13:59:55;9.88;;;1.88;;
34926;SDS011;21132;48.308;14.274;2022-07-29T14:02:21;2.78;;;1.98;;
34926;SDS011;21132;48.308;14.274;2022-07-29T14:04:47;1.98;;;1.73;;
34926;SDS011;21132;48.308;14.274;2022-07-29T14:07:13;4.18;;;2.20;;
34926;SDS011;21132;48.308;14.274;2022-07-29T14:09:39;5.13;;;1.80;;
34926;SDS011;21132;48.308;14.274;2022-07-29T14:12:05;2.20;;;1.98;;
34926;SDS011;21132;48.308;14.274;2022-07-29T14:14:31;4.45;;;2.60;;
34926;SDS011;21132;48.308;14.274;2022-07-29T14:16:57;2.80;;;1.90;;
34926;SDS011;21132;48.308;14.274;2022-07-29T14:19:24;8.75;;;2.03;;
34926;SDS011;21132;48.308;14.274;2022-07-29T14:21:50;2.72;;;2.03;;
34926;SDS011;21132;48.308;14.274;2022-07-29T14:24:16;2.72;;;2.10;;
34926;SDS011;21132;48.308;14.274;2022-07-29T14:26:41;2.72;;;2.03;;
34926;SDS011;21132;48.308;14.274;2022-07-29T14:29:07;5.55;;;3.00;;
34926;SDS011;21132;48.308;14.274;2022-07-29T14:31:33;3.92;;;2.50;;
34926;SDS011;21132;48.308;14.274;2022-07-29T14:33:59;6.30;;;2.88;;
34926;SDS011;21132;48.308;14.274;2022-07-29T14:36:25;4.97;;;3.53;;
34926;SDS011;21132;48.308;14.274;2022-07-29T14:38:50;5.55;;;3.60;;
34926;SDS011;21132;48.308;14.274;2022-07-29T14:41:16;6.88;;;4.10;;
34926;SDS011;21132;48.308;14.274;2022-07-29T14:43:42;9.18;;;4.47;;
34926;SDS011;21132;48.308;14.274;2022-07-29T14:46:07;8.32;;;4.90;;
34926;SDS011;21132;48.308;14.274;2022-07-29T14:48:33;8.00;;;5.25;;
34926;SDS011;21132;48.308;14.274;2022-07-29T14:51:00;7.28;;;4.57;;
34926;SDS011;21132;48.308;14.274;2022-07-29T14:53:25;6.88;;;4.05;;
34926;SDS011;21132;48.308;14.274;2022-07-29T14:55:51;4.55;;;3.42;;
34926;SDS011;21132;48.308;14.274;2022-07-29T14:58:17;5.13;;;3.33;;
34926;SDS011;21132;48.308;14.274;2022-07-29T15:00:43;6.38;;;3.78;;
34926;SDS011;21132;48.308;14.274;2022-07-29T15:03:08;6.53;;;4.07;;
34926;SDS011;21132;48.308;14.274;2022-07-29T15:05:35;4.00;;;3.13;;
34926;SDS011;21132;48.308;14.274;2022-07-29T15:08:01;8.30;;;3.72;;
34926;SDS011;21132;48.308;14.274;2022-07-29T15:10:27;9.55;;;3.28;;
34926;SDS011;21132;48.308;14.274;2022-07-29T15:12:54;4.88;;;3.72;;
34926;SDS011;21132;48.308;14.274;2022-07-29T15:15:20;6.45;;;2.90;;
34926;SDS011;21132;48.308;14.274;2022-07-29T15:17:46;3.53;;;3.20;;
34926;SDS011;21132;48.308;14.274;2022-07-29T15:20:12;3.28;;;2.70;;
34926;SDS011;21132;48.308;14.274;2022-07-29T15:22:38;4.03;;;2.95;;
34926;SDS011;21132;48.308;14.274;2022-07-29T15:25:06;3.00;;;2.72;;
34926;SDS011;21132;48.308;14.274;2022-07-29T15:27:32;2.90;;;2.60;;
34926;SDS011;21132;48.308;14.274;2022-07-29T15:29:58;3.35;;;3.05;;
34926;SDS011;21132;48.308;14.274;2022-07-29T15:32:24;4.90;;;2.88;;